sensor_id;sensor_type;location;lat;lon;timestamp;P1;durP1;ratioP1;P2;durP2;ratioP2
29848;SDS011;16728;50.832;5.590;2023-12-20T00:02:53;24.25;;;17.05;;
29848;SDS011;16728;50.832;5.590;2023-12-20T00:05:55;18.58;;;11.13;;
29848;SDS011;16728;50.832;5.590;2023-12-20T00:08:57;14.05;;;8.40;;
29848;SDS011;16728;50.832;5.590;2023-12-20T00:11:59;14.27;;;6.78;;
29848;SDS011;16728;50.832;5.590;2023-12-20T00:15:01;13.48;;;6.20;;
29848;SDS011;16728;50.832;5.590;2023-12-20T00:18:03;13.38;;;4.90;;
29848;SDS011;16728;50.832;5.590;2023-12-20T00:21:05;19.75;;;4.60;;
29848;SDS011;16728;50.832;5.590;2023-12-20T00:24:07;15.43;;;3.85;;
29848;SDS011;16728;50.832;5.590;2023-12-20T00:27:09;11.57;;;3.90;;
29848;SDS011;16728;50.832;5.590;2023-12-20T00:30:11;9.35;;;3.58;;
29848;SDS011;16728;50.832;5.590;2023-12-20T00:33:13;10.45;;;3.20;;
29848;SDS011;16728;50.832;5.590;2023-12-20T00:36:15;10.30;;;3.15;;
29848;SDS011;16728;50.832;5.590;2023-12-20T00:39:17;12.07;;;2.75;;
29848;SDS011;16728;50.832;5.590;2023-12-20T00:42:19;13.55;;;2.67;;
29848;SDS011;16728;50.832;5.590;2023-12-20T00:45:21;8.18;;;3.33;;
29848;SDS011;16728;50.832;5.590;2023-12-20T00:48:23;11.93;;;2.63;;
29848;SDS011;16728;50.832;5.590;2023-12-20T00:51:25;10.27;;;2.30;;
29848;SDS011;16728;50.832;5.590;2023-12-20T00:54:27;11.52;;;2.72;;
29848;SDS011;16728;50.832;5.590;2023-12-20T00:57:31;7.93;;;1.90;;
29848;SDS011;16728;50.832;5.590;2023-12-20T01:00:33;11.25;;;2.10;;
29848;SDS011;16728;50.832;5.590;2023-12-20T01:03:35;15.80;;;2.15;;
29848;SDS011;16728;50.832;5.590;2023-12-20T01:06:37;13.95;;;2.30;;
29848;SDS011;16728;50.832;5.590;2023-12-20T01:09:40;11.00;;;2.10;;
29848;SDS011;16728;50.832;5.590;2023-12-20T01:12:42;13.02;;;2.00;;
29848;SDS011;16728;50.832;5.590;2023-12-20T01:15:44;6.82;;;1.90;;
29848;SDS011;16728;50.832;5.590;2023-12-20T01:18:46;13.13;;;2.00;;
29848;SDS011;16728;50.832;5.590;2023-12-20T01:21:48;11.63;;;2.40;;
29848;SDS011;16728;50.832;5.590;2023-12-20T01:24:50;9.43;;;2.33;;
29848;SDS011;16728;50.832;5.590;2023-12-20T01:27:52;6.95;;;1.65;;
29848;SDS011;16728;50.832;5.590;2023-12-20T01:30:54;11.93;;;2.42;;
29848;SDS011;16728;50.832;5.590;2023-12-20T01:33:56;9.10;;;2.60;;
29848;SDS011;16728;50.832;5.590;2023-12-20T01:36:58;14.60;;;2.88;;
29848;SDS011;16728;50.832;5.590;2023-12-20T01:40:01;11.68;;;2.70;;
29848;SDS011;16728;50.832;5.590;2023-12-20T01:43:07;7.45;;;2.13;;
29848;SDS011;16728;50.832;5.590;2023-12-20T01:46:10;11.85;;;2.53;;
29848;SDS011;16728;50.832;5.590;2023-12-20T01:49:13;8.30;;;2.35;;
29848;SDS011;16728;50.832;5.590;2023-12-20T01:52:16;11.57;;;2.78;;
29848;SDS011;16728;50.832;5.590;2023-12-20T01:55:19;9.43;;;2.25;;
29848;SDS011;16728;50.832;5.590;2023-12-20T01:58:22;7.72;;;2.40;;
29848;SDS011;16728;50.832;5.590;2023-12-20T02:01:25;8.95;;;2.35;;
29848;SDS011;16728;50.832;5.590;2023-12-20T02:04:29;14.63;;;3.38;;
29848;SDS011;16728;50.832;5.590;2023-12-20T02:07:31;13.15;;;2.78;;
29848;SDS011;16728;50.832;5.590;2023-12-20T02:10:34;16.30;;;3.65;;
29848;SDS011;16728;50.832;5.590;2023-12-20T02:13:36;10.50;;;2.85;;
29848;SDS011;16728;50.832;5.590;2023-12-20T02:16:38;9.15;;;2.95;;
29848;SDS011;16728;50.832;5.590;2023-12-20T02:19:40;14.38;;;3.13;;
29848;SDS011;16728;50.832;5.590;2023-12-20T02:22:42;11.25;;;3.42;;
29848;SDS011;16728;50.832;5.590;2023-12-20T02:25:44;9.50;;;2.67;;
29848;SDS011;16728;50.832;5.590;2023-12-20T02:28:46;8.63;;;3.22;;
29848;SDS011;16728;50.832;5.590;2023-12-20T02:31:48;8.30;;;2.83;;
29848;SDS011;16728;50.832;5.590;2023-12-20T02:34:50;10.68;;;2.95;;
29848;SDS011;16728;50.832;5.590;2023-12-20T02:37:52;12.00;;;2.50;;
29848;SDS011;16728;50.832;5.590;2023-12-20T02:40:54;8.48;;;2.83;;
29848;SDS011;16728;50.832;5.590;2023-12-20T02:43:56;11.63;;;2.47;;
29848;SDS011;16728;50.832;5.590;2023-12-20T02:46:57;9.38;;;2.88;;
29848;SDS011;16728;50.832;5.590;2023-12-20T02:49:59;9.18;;;2.40;;
29848;SDS011;16728;50.832;5.590;2023-12-20T02:53:02;10.38;;;3.13;;
29848;SDS011;16728;50.832;5.590;2023-12-20T02:56:05;12.85;;;2.92;;
29848;SDS011;16728;50.832;5.590;2023-12-20T02:59:07;11.43;;;3.08;;
29848;SDS011;16728;50.832;5.590;2023-12-20T03:02:12;17.35;;;3.28;;
29848;SDS011;16728;50.832;5.590;2023-12-20T03:05:14;13.60;;;2.78;;
29848;SDS011;16728;50.832;5.590;2023-12-20T03:08:16;9.70;;;2.40;;
29848;SDS011;16728;50.832;5.590;2023-12-20T03:11:18;8.30;;;2.47;;
29848;SDS011;16728;50.832;5.590;2023-12-20T03:14:20;14.07;;;3.10;;
29848;SDS011;16728;50.832;5.590;2023-12-20T03:17:34;8.95;;;3.22;;
29848;SDS011;16728;50.832;5.590;2023-12-20T03:20:35;10.93;;;3.08;;
29848;SDS011;16728;50.832;5.590;2023-12-20T03:23:37;13.25;;;3.00;;
29848;SDS011;16728;50.832;5.590;2023-12-20T03:26:39;10.20;;;3.05;;
29848;SDS011;16728;50.832;5.590;2023-12-20T03:29:41;10.75;;;3.17;;
29848;SDS011;16728;50.832;5.590;2023-12-20T03:32:43;14.50;;;3.22;;
29848;SDS011;16728;50.832;5.590;2023-12-20T03:35:45;11.48;;;3.17;;
29848;SDS011;16728;50.832;5.590;2023-12-20T03:38:47;15.23;;;3.47;;
29848;SDS011;16728;50.832;5.590;2023-12-20T03:41:49;13.00;;;3.55;;
29848;SDS011;16728;50.832;5.590;2023-12-20T03:44:51;15.02;;;3.70;;
29848;SDS011;16728;50.832;5.590;2023-12-20T03:47:52;10.38;;;2.85;;
29848;SDS011;16728;50.832;5.590;2023-12-20T03:50:56;11.02;;;2.80;;
29848;SDS011;16728;50.832;5.590;2023-12-20T03:53:58;12.57;;;4.03;;
29848;SDS011;16728;50.832;5.590;2023-12-20T03:57:00;13.40;;;3.10;;
29848;SDS011;16728;50.832;5.590;2023-12-20T04:00:02;13.73;;;3.13;;
29848;SDS011;16728;50.832;5.590;2023-12-20T04:03:05;12.27;;;3.00;;
29848;SDS011;16728;50.832;5.590;2023-12-20T04:06:06;16.77;;;3.42;;
29848;SDS011;16728;50.832;5.590;2023-12-20T04:09:08;14.40;;;3.03;;
29848;SDS011;16728;50.832;5.590;2023-12-20T04:12:10;16.95;;;3.45;;
29848;SDS011;16728;50.832;5.590;2023-12-20T04:15:12;17.08;;;3.30;;
29848;SDS011;16728;50.832;5.590;2023-12-20T04:18:14;9.07;;;2.47;;
29848;SDS011;16728;50.832;5.590;2023-12-20T04:21:16;16.55;;;3.25;;
29848;SDS011;16728;50.832;5.590;2023-12-20T04:24:19;11.77;;;3.28;;
29848;SDS011;16728;50.832;5.590;2023-12-20T04:27:21;15.65;;;3.40;;
29848;SDS011;16728;50.832;5.590;2023-12-20T04:30:23;14.35;;;3.33;;
29848;SDS011;16728;50.832;5.590;2023-12-20T04:33:24;9.95;;;3.03;;
29848;SDS011;16728;50.832;5.590;2023-12-20T04:36:26;14.23;;;4.03;;
29848;SDS011;16728;50.832;5.590;2023-12-20T04:39:31;10.32;;;3.15;;
29848;SDS011;16728;50.832;5.590;2023-12-20T04:42:33;17.77;;;3.95;;
29848;SDS011;16728;50.832;5.590;2023-12-20T04:45:35;13.63;;;3.33;;
29848;SDS011;16728;50.832;5.590;2023-12-20T04:48:37;17.00;;;4.38;;
29848;SDS011;16728;50.832;5.590;2023-12-20T04:51:38;21.33;;;4.13;;
29848;SDS011;16728;50.832;5.590;2023-12-20T04:54:40;10.15;;;3.72;;
29848;SDS011;16728;50.832;5.590;2023-12-20T04:57:45;19.00;;;4.07;;
29848;SDS011;16728;50.832;5.590;2023-12-20T05:00:48;15.77;;;4.78;;
29848;SDS011;16728;50.832;5.590;2023-12-20T05:03:50;12.95;;;3.90;;
29848;SDS011;16728;50.832;5.590;2023-12-20T05:06:52;16.85;;;4.53;;
29848;SDS011;16728;50.832;5.590;2023-12-20T05:09:54;18.85;;;4.82;;
29848;SDS011;16728;50.832;5.590;2023-12-20T05:12:55;15.98;;;5.70;;
29848;SDS011;16728;50.832;5.590;2023-12-20T05:15:57;15.50;;;4.82;;
29848;SDS011;16728;50.832;5.590;2023-12-20T05:19:00;15.77;;;4.20;;
29848;SDS011;16728;50.832;5.590;2023-12-20T05:22:03;14.63;;;5.40;;
29848;SDS011;16728;50.832;5.590;2023-12-20T05:25:05;15.70;;;5.18;;
29848;SDS011;16728;50.832;5.590;2023-12-20T05:28:08;18.27;;;4.95;;
29848;SDS011;16728;50.832;5.590;2023-12-20T05:31:10;14.30;;;4.60;;
29848;SDS011;16728;50.832;5.590;2023-12-20T05:34:11;13.13;;;4.25;;
29848;SDS011;16728;50.832;5.590;2023-12-20T05:37:13;24.17;;;5.88;;
29848;SDS011;16728;50.832;5.590;2023-12-20T05:40:15;13.52;;;4.25;;
29848;SDS011;16728;50.832;5.590;2023-12-20T05:43:17;17.25;;;4.45;;
29848;SDS011;16728;50.832;5.590;2023-12-20T05:46:20;17.75;;;4.53;;
29848;SDS011;16728;50.832;5.590;2023-12-20T05:49:23;21.02;;;5.10;;
29848;SDS011;16728;50.832;5.590;2023-12-20T05:52:25;18.58;;;5.28;;
29848;SDS011;16728;50.832;5.590;2023-12-20T05:55:27;18.23;;;4.57;;
29848;SDS011;16728;50.832;5.590;2023-12-20T05:58:28;17.77;;;4.63;;
29848;SDS011;16728;50.832;5.590;2023-12-20T06:01:31;11.57;;;3.92;;
29848;SDS011;16728;50.832;5.590;2023-12-20T06:04:33;13.95;;;3.92;;
29848;SDS011;16728;50.832;5.590;2023-12-20T06:07:35;16.10;;;4.97;;
29848;SDS011;16728;50.832;5.590;2023-12-20T06:10:37;12.05;;;3.80;;
29848;SDS011;16728;50.832;5.590;2023-12-20T06:13:39;11.95;;;4.13;;
29848;SDS011;16728;50.832;5.590;2023-12-20T06:16:41;23.15;;;4.00;;
29848;SDS011;16728;50.832;5.590;2023-12-20T06:19:43;10.15;;;3.83;;
29848;SDS011;16728;50.832;5.590;2023-12-20T06:22:46;16.65;;;4.65;;
29848;SDS011;16728;50.832;5.590;2023-12-20T06:25:48;12.80;;;4.43;;
29848;SDS011;16728;50.832;5.590;2023-12-20T06:28:50;15.32;;;3.90;;
29848;SDS011;16728;50.832;5.590;2023-12-20T06:31:52;16.73;;;4.35;;
29848;SDS011;16728;50.832;5.590;2023-12-20T06:34:54;13.82;;;4.88;;
29848;SDS011;16728;50.832;5.590;2023-12-20T06:37:56;18.58;;;4.97;;
29848;SDS011;16728;50.832;5.590;2023-12-20T06:40:58;12.60;;;4.72;;
29848;SDS011;16728;50.832;5.590;2023-12-20T06:44:00;17.15;;;8.35;;
29848;SDS011;16728;50.832;5.590;2023-12-20T06:47:02;15.00;;;5.40;;
29848;SDS011;16728;50.832;5.590;2023-12-20T06:50:05;17.60;;;5.20;;
29848;SDS011;16728;50.832;5.590;2023-12-20T06:53:07;18.50;;;5.40;;
29848;SDS011;16728;50.832;5.590;2023-12-20T06:56:10;13.35;;;4.53;;
29848;SDS011;16728;50.832;5.590;2023-12-20T06:59:19;15.88;;;4.85;;
29848;SDS011;16728;50.832;5.590;2023-12-20T07:02:21;17.88;;;4.95;;
29848;SDS011;16728;50.832;5.590;2023-12-20T07:05:41;13.40;;;4.60;;
29848;SDS011;16728;50.832;5.590;2023-12-20T07:08:57;18.52;;;4.82;;
29848;SDS011;16728;50.832;5.590;2023-12-20T07:11:59;13.60;;;5.10;;
29848;SDS011;16728;50.832;5.590;2023-12-20T07:15:01;11.23;;;4.60;;
29848;SDS011;16728;50.832;5.590;2023-12-20T07:18:03;14.27;;;4.93;;
29848;SDS011;16728;50.832;5.590;2023-12-20T07:21:06;17.60;;;4.72;;
29848;SDS011;16728;50.832;5.590;2023-12-20T07:24:10;12.73;;;5.13;;
29848;SDS011;16728;50.832;5.590;2023-12-20T07:27:12;15.27;;;5.13;;
29848;SDS011;16728;50.832;5.590;2023-12-20T07:30:14;15.38;;;5.07;;
29848;SDS011;16728;50.832;5.590;2023-12-20T07:33:16;16.95;;;5.57;;
29848;SDS011;16728;50.832;5.590;2023-12-20T07:36:19;10.63;;;4.55;;
29848;SDS011;16728;50.832;5.590;2023-12-20T07:39:22;16.13;;;5.20;;
29848;SDS011;16728;50.832;5.590;2023-12-20T07:42:24;16.10;;;6.05;;
29848;SDS011;16728;50.832;5.590;2023-12-20T07:45:26;20.20;;;8.32;;
29848;SDS011;16728;50.832;5.590;2023-12-20T07:48:28;18.95;;;6.28;;
29848;SDS011;16728;50.832;5.590;2023-12-20T07:51:30;17.77;;;6.05;;
29848;SDS011;16728;50.832;5.590;2023-12-20T07:54:31;14.27;;;4.80;;
29848;SDS011;16728;50.832;5.590;2023-12-20T07:57:35;21.85;;;5.40;;
29848;SDS011;16728;50.832;5.590;2023-12-20T08:00:37;14.98;;;5.10;;
29848;SDS011;16728;50.832;5.590;2023-12-20T08:03:39;14.05;;;5.50;;
29848;SDS011;16728;50.832;5.590;2023-12-20T08:06:52;17.10;;;5.65;;
29848;SDS011;16728;50.832;5.590;2023-12-20T08:09:54;18.23;;;5.03;;
29848;SDS011;16728;50.832;5.590;2023-12-20T08:12:58;20.00;;;4.70;;
29848;SDS011;16728;50.832;5.590;2023-12-20T08:16:00;21.40;;;4.65;;
29848;SDS011;16728;50.832;5.590;2023-12-20T08:19:06;16.15;;;4.90;;
29848;SDS011;16728;50.832;5.590;2023-12-20T08:22:09;15.25;;;4.18;;
29848;SDS011;16728;50.832;5.590;2023-12-20T08:25:13;13.25;;;4.30;;
29848;SDS011;16728;50.832;5.590;2023-12-20T08:28:16;16.40;;;4.40;;
29848;SDS011;16728;50.832;5.590;2023-12-20T08:31:18;19.92;;;4.40;;
29848;SDS011;16728;50.832;5.590;2023-12-20T08:34:21;12.05;;;3.97;;
29848;SDS011;16728;50.832;5.590;2023-12-20T08:37:23;12.07;;;3.25;;
29848;SDS011;16728;50.832;5.590;2023-12-20T08:40:25;14.45;;;3.90;;
29848;SDS011;16728;50.832;5.590;2023-12-20T08:43:29;15.32;;;3.83;;
29848;SDS011;16728;50.832;5.590;2023-12-20T08:46:38;13.68;;;4.50;;
29848;SDS011;16728;50.832;5.590;2023-12-20T08:49:39;15.18;;;3.50;;
29848;SDS011;16728;50.832;5.590;2023-12-20T08:52:41;13.98;;;3.85;;
29848;SDS011;16728;50.832;5.590;2023-12-20T08:55:44;14.02;;;3.85;;
29848;SDS011;16728;50.832;5.590;2023-12-20T08:58:47;13.10;;;3.65;;
29848;SDS011;16728;50.832;5.590;2023-12-20T09:01:49;15.23;;;3.72;;
29848;SDS011;16728;50.832;5.590;2023-12-20T09:04:55;18.10;;;3.92;;
29848;SDS011;16728;50.832;5.590;2023-12-20T09:07:58;9.73;;;3.35;;
29848;SDS011;16728;50.832;5.590;2023-12-20T09:10:59;19.17;;;4.10;;
29848;SDS011;16728;50.832;5.590;2023-12-20T09:14:02;12.00;;;3.93;;
29848;SDS011;16728;50.832;5.590;2023-12-20T09:17:04;11.07;;;3.17;;
29848;SDS011;16728;50.832;5.590;2023-12-20T09:20:09;12.25;;;3.40;;
29848;SDS011;16728;50.832;5.590;2023-12-20T09:23:11;9.38;;;2.70;;
29848;SDS011;16728;50.832;5.590;2023-12-20T09:26:15;12.68;;;2.80;;
29848;SDS011;16728;50.832;5.590;2023-12-20T09:29:28;14.65;;;3.15;;
29848;SDS011;16728;50.832;5.590;2023-12-20T09:32:31;14.55;;;3.20;;
29848;SDS011;16728;50.832;5.590;2023-12-20T09:35:33;11.00;;;2.90;;
29848;SDS011;16728;50.832;5.590;2023-12-20T09:38:35;12.30;;;2.97;;
29848;SDS011;16728;50.832;5.590;2023-12-20T09:41:37;16.95;;;3.60;;
29848;SDS011;16728;50.832;5.590;2023-12-20T09:44:44;10.35;;;3.15;;
29848;SDS011;16728;50.832;5.590;2023-12-20T09:47:49;12.20;;;3.03;;
29848;SDS011;16728;50.832;5.590;2023-12-20T09:50:52;12.48;;;2.90;;
29848;SDS011;16728;50.832;5.590;2023-12-20T09:53:54;17.03;;;3.50;;
29848;SDS011;16728;50.832;5.590;2023-12-20T09:56:58;12.65;;;3.05;;
29848;SDS011;16728;50.832;5.590;2023-12-20T10:00:00;13.95;;;2.90;;
29848;SDS011;16728;50.832;5.590;2023-12-20T10:03:02;14.40;;;3.40;;
29848;SDS011;16728;50.832;5.590;2023-12-20T10:06:07;12.98;;;5.53;;
29848;SDS011;16728;50.832;5.590;2023-12-20T10:09:10;14.13;;;4.57;;
29848;SDS011;16728;50.832;5.590;2023-12-20T10:12:13;13.50;;;3.38;;
29848;SDS011;16728;50.832;5.590;2023-12-20T10:15:15;16.98;;;4.13;;
29848;SDS011;16728;50.832;5.590;2023-12-20T10:18:17;13.02;;;3.90;;
29848;SDS011;16728;50.832;5.590;2023-12-20T10:21:18;14.77;;;4.30;;
29848;SDS011;16728;50.832;5.590;2023-12-20T10:24:21;10.60;;;3.45;;
29848;SDS011;16728;50.832;5.590;2023-12-20T10:27:25;11.75;;;3.65;;
29848;SDS011;16728;50.832;5.590;2023-12-20T10:30:27;12.45;;;3.80;;
29848;SDS011;16728;50.832;5.590;2023-12-20T10:33:30;12.47;;;3.87;;
29848;SDS011;16728;50.832;5.590;2023-12-20T10:36:34;17.70;;;3.40;;
29848;SDS011;16728;50.832;5.590;2023-12-20T10:42:40;13.35;;;4.53;;
29848;SDS011;16728;50.832;5.590;2023-12-20T10:45:42;17.73;;;3.70;;
29848;SDS011;16728;50.832;5.590;2023-12-20T10:48:47;15.65;;;3.97;;
29848;SDS011;16728;50.832;5.590;2023-12-20T10:51:53;12.93;;;3.00;;
29848;SDS011;16728;50.832;5.590;2023-12-20T10:54:59;16.67;;;3.95;;
29848;SDS011;16728;50.832;5.590;2023-12-20T10:58:01;13.57;;;3.90;;
29848;SDS011;16728;50.832;5.590;2023-12-20T11:01:08;9.10;;;3.10;;
29848;SDS011;16728;50.832;5.590;2023-12-20T11:04:11;10.80;;;3.38;;
29848;SDS011;16728;50.832;5.590;2023-12-20T11:10:45;12.18;;;3.30;;
29848;SDS011;16728;50.832;5.590;2023-12-20T11:17:12;11.35;;;3.10;;
29848;SDS011;16728;50.832;5.590;2023-12-20T11:20:18;18.02;;;4.18;;
29848;SDS011;16728;50.832;5.590;2023-12-20T11:23:26;14.55;;;3.50;;
29848;SDS011;16728;50.832;5.590;2023-12-20T11:26:28;13.40;;;3.33;;
29848;SDS011;16728;50.832;5.590;2023-12-20T11:29:34;15.90;;;4.03;;
29848;SDS011;16728;50.832;5.590;2023-12-20T11:32:43;14.02;;;4.07;;
29848;SDS011;16728;50.832;5.590;2023-12-20T11:35:47;15.52;;;3.90;;
29848;SDS011;16728;50.832;5.590;2023-12-20T11:38:56;16.17;;;3.42;;
29848;SDS011;16728;50.832;5.590;2023-12-20T11:42:04;12.23;;;3.03;;
29848;SDS011;16728;50.832;5.590;2023-12-20T11:45:17;17.52;;;3.92;;
29848;SDS011;16728;50.832;5.590;2023-12-20T11:48:33;14.57;;;3.78;;
29848;SDS011;16728;50.832;5.590;2023-12-20T11:51:42;14.32;;;3.58;;
29848;SDS011;16728;50.832;5.590;2023-12-20T11:54:51;12.48;;;3.63;;
29848;SDS011;16728;50.832;5.590;2023-12-20T11:58:03;11.57;;;3.80;;
29848;SDS011;16728;50.832;5.590;2023-12-20T12:01:05;11.90;;;3.00;;
29848;SDS011;16728;50.832;5.590;2023-12-20T12:04:10;16.02;;;5.40;;
29848;SDS011;16728;50.832;5.590;2023-12-20T12:07:12;15.57;;;5.38;;
29848;SDS011;16728;50.832;5.590;2023-12-20T12:10:14;26.15;;;3.92;;
29848;SDS011;16728;50.832;5.590;2023-12-20T12:13:35;19.17;;;3.78;;
29848;SDS011;16728;50.832;5.590;2023-12-20T12:16:37;8.13;;;3.65;;
29848;SDS011;16728;50.832;5.590;2023-12-20T12:19:40;16.45;;;3.25;;
29848;SDS011;16728;50.832;5.590;2023-12-20T12:26:05;11.10;;;3.03;;
29848;SDS011;16728;50.832;5.590;2023-12-20T12:29:10;17.00;;;3.67;;
29848;SDS011;16728;50.832;5.590;2023-12-20T12:32:12;13.07;;;3.25;;
29848;SDS011;16728;50.832;5.590;2023-12-20T12:35:22;19.02;;;3.30;;
29848;SDS011;16728;50.832;5.590;2023-12-20T12:38:24;10.25;;;3.70;;
29848;SDS011;16728;50.832;5.590;2023-12-20T12:41:32;16.73;;;3.72;;
29848;SDS011;16728;50.832;5.590;2023-12-20T12:44:34;10.77;;;2.97;;
29848;SDS011;16728;50.832;5.590;2023-12-20T12:47:36;13.77;;;3.50;;
29848;SDS011;16728;50.832;5.590;2023-12-20T12:50:52;12.88;;;3.30;;
29848;SDS011;16728;50.832;5.590;2023-12-20T12:53:55;14.50;;;3.38;;
29848;SDS011;16728;50.832;5.590;2023-12-20T12:56:57;9.50;;;3.33;;
29848;SDS011;16728;50.832;5.590;2023-12-20T13:00:00;10.73;;;3.65;;
29848;SDS011;16728;50.832;5.590;2023-12-20T13:03:02;14.95;;;4.28;;
29848;SDS011;16728;50.832;5.590;2023-12-20T13:06:05;17.23;;;3.47;;
29848;SDS011;16728;50.832;5.590;2023-12-20T13:09:10;15.73;;;6.03;;
29848;SDS011;16728;50.832;5.590;2023-12-20T13:12:12;15.18;;;3.90;;
29848;SDS011;16728;50.832;5.590;2023-12-20T13:15:14;14.38;;;3.65;;
29848;SDS011;16728;50.832;5.590;2023-12-20T13:18:18;18.95;;;3.65;;
29848;SDS011;16728;50.832;5.590;2023-12-20T13:21:20;14.88;;;3.80;;
29848;SDS011;16728;50.832;5.590;2023-12-20T13:24:31;14.40;;;4.43;;
29848;SDS011;16728;50.832;5.590;2023-12-20T13:27:36;18.13;;;3.58;;
29848;SDS011;16728;50.832;5.590;2023-12-20T13:30:39;17.20;;;4.00;;
29848;SDS011;16728;50.832;5.590;2023-12-20T13:33:53;14.60;;;3.77;;
29848;SDS011;16728;50.832;5.590;2023-12-20T13:36:55;9.90;;;2.83;;
29848;SDS011;16728;50.832;5.590;2023-12-20T13:39:58;16.88;;;3.45;;
29848;SDS011;16728;50.832;5.590;2023-12-20T13:43:03;11.57;;;3.65;;
29848;SDS011;16728;50.832;5.590;2023-12-20T13:46:05;13.70;;;3.50;;
29848;SDS011;16728;50.832;5.590;2023-12-20T13:49:07;14.20;;;4.00;;
29848;SDS011;16728;50.832;5.590;2023-12-20T13:52:09;14.35;;;3.47;;
29848;SDS011;16728;50.832;5.590;2023-12-20T13:55:21;13.07;;;3.70;;
29848;SDS011;16728;50.832;5.590;2023-12-20T13:58:30;15.88;;;4.03;;
29848;SDS011;16728;50.832;5.590;2023-12-20T14:01:32;13.57;;;3.53;;
29848;SDS011;16728;50.832;5.590;2023-12-20T14:04:34;13.40;;;4.43;;
29848;SDS011;16728;50.832;5.590;2023-12-20T14:07:43;15.43;;;3.75;;
29848;SDS011;16728;50.832;5.590;2023-12-20T14:10:47;19.00;;;4.18;;
29848;SDS011;16728;50.832;5.590;2023-12-20T14:13:49;11.70;;;3.22;;
29848;SDS011;16728;50.832;5.590;2023-12-20T14:16:54;10.60;;;3.35;;
29848;SDS011;16728;50.832;5.590;2023-12-20T14:19:55;12.57;;;4.30;;
29848;SDS011;16728;50.832;5.590;2023-12-20T14:22:58;12.57;;;3.85;;
29848;SDS011;16728;50.832;5.590;2023-12-20T14:25:59;12.13;;;3.90;;
29848;SDS011;16728;50.832;5.590;2023-12-20T14:29:03;12.27;;;3.72;;
29848;SDS011;16728;50.832;5.590;2023-12-20T14:32:05;17.10;;;4.22;;
29848;SDS011;16728;50.832;5.590;2023-12-20T14:35:16;10.68;;;3.95;;
29848;SDS011;16728;50.832;5.590;2023-12-20T14:38:18;13.23;;;3.90;;
29848;SDS011;16728;50.832;5.590;2023-12-20T14:41:23;9.57;;;2.97;;
29848;SDS011;16728;50.832;5.590;2023-12-20T14:44:26;13.70;;;3.03;;
29848;SDS011;16728;50.832;5.590;2023-12-20T14:47:28;14.55;;;3.67;;
29848;SDS011;16728;50.832;5.590;2023-12-20T14:50:29;12.35;;;3.58;;
29848;SDS011;16728;50.832;5.590;2023-12-20T14:53:31;12.40;;;3.80;;
29848;SDS011;16728;50.832;5.590;2023-12-20T14:56:33;13.38;;;3.40;;
29848;SDS011;16728;50.832;5.590;2023-12-20T14:59:36;9.23;;;3.38;;
29848;SDS011;16728;50.832;5.590;2023-12-20T15:02:38;13.18;;;3.60;;
29848;SDS011;16728;50.832;5.590;2023-12-20T15:05:40;15.05;;;4.40;;
29848;SDS011;16728;50.832;5.590;2023-12-20T15:08:51;12.07;;;3.38;;
29848;SDS011;16728;50.832;5.590;2023-12-20T15:11:53;14.30;;;3.63;;
29848;SDS011;16728;50.832;5.590;2023-12-20T15:14:55;21.45;;;3.97;;
29848;SDS011;16728;50.832;5.590;2023-12-20T15:17:58;13.63;;;4.30;;
29848;SDS011;16728;50.832;5.590;2023-12-20T15:20:59;16.73;;;3.75;;
29848;SDS011;16728;50.832;5.590;2023-12-20T15:24:01;13.73;;;3.72;;
29848;SDS011;16728;50.832;5.590;2023-12-20T15:27:52;16.67;;;4.63;;
29848;SDS011;16728;50.832;5.590;2023-12-20T15:30:57;13.35;;;4.30;;
29848;SDS011;16728;50.832;5.590;2023-12-20T15:33:59;23.45;;;5.18;;
29848;SDS011;16728;50.832;5.590;2023-12-20T15:37:02;14.48;;;3.58;;
29848;SDS011;16728;50.832;5.590;2023-12-20T15:40:05;15.10;;;4.10;;
29848;SDS011;16728;50.832;5.590;2023-12-20T15:43:13;15.05;;;4.20;;
29848;SDS011;16728;50.832;5.590;2023-12-20T15:46:15;14.30;;;3.47;;
29848;SDS011;16728;50.832;5.590;2023-12-20T15:49:17;11.57;;;3.55;;
29848;SDS011;16728;50.832;5.590;2023-12-20T15:52:20;10.32;;;3.55;;
29848;SDS011;16728;50.832;5.590;2023-12-20T15:55:22;18.48;;;6.25;;
29848;SDS011;16728;50.832;5.590;2023-12-20T15:58:24;17.83;;;4.88;;
29848;SDS011;16728;50.832;5.590;2023-12-20T16:01:28;17.85;;;3.88;;
29848;SDS011;16728;50.832;5.590;2023-12-20T16:04:32;8.98;;;3.28;;
29848;SDS011;16728;50.832;5.590;2023-12-20T16:07:34;14.35;;;4.03;;
29848;SDS011;16728;50.832;5.590;2023-12-20T16:10:36;12.13;;;4.20;;
29848;SDS011;16728;50.832;5.590;2023-12-20T16:13:38;13.05;;;3.78;;
29848;SDS011;16728;50.832;5.590;2023-12-20T16:16:40;18.10;;;4.20;;
29848;SDS011;16728;50.832;5.590;2023-12-20T16:19:42;17.05;;;3.58;;
29848;SDS011;16728;50.832;5.590;2023-12-20T16:22:46;13.00;;;4.35;;
29848;SDS011;16728;50.832;5.590;2023-12-20T16:25:48;10.20;;;3.45;;
29848;SDS011;16728;50.832;5.590;2023-12-20T16:28:50;15.40;;;3.45;;
29848;SDS011;16728;50.832;5.590;2023-12-20T16:31:53;13.98;;;3.95;;
29848;SDS011;16728;50.832;5.590;2023-12-20T16:34:54;10.93;;;3.60;;
29848;SDS011;16728;50.832;5.590;2023-12-20T16:37:56;18.38;;;3.67;;
29848;SDS011;16728;50.832;5.590;2023-12-20T16:40:58;17.73;;;3.72;;
29848;SDS011;16728;50.832;5.590;2023-12-20T16:44:00;14.65;;;4.20;;
29848;SDS011;16728;50.832;5.590;2023-12-20T16:47:02;12.05;;;3.72;;
29848;SDS011;16728;50.832;5.590;2023-12-20T16:50:04;15.35;;;3.75;;
29848;SDS011;16728;50.832;5.590;2023-12-20T16:53:08;12.30;;;3.70;;
29848;SDS011;16728;50.832;5.590;2023-12-20T16:56:10;16.48;;;3.60;;
29848;SDS011;16728;50.832;5.590;2023-12-20T16:59:18;17.25;;;3.53;;
29848;SDS011;16728;50.832;5.590;2023-12-20T17:02:20;12.48;;;4.15;;
29848;SDS011;16728;50.832;5.590;2023-12-20T17:05:22;33.65;;;16.65;;
29848;SDS011;16728;50.832;5.590;2023-12-20T17:08:24;15.40;;;4.47;;
29848;SDS011;16728;50.832;5.590;2023-12-20T17:11:26;12.18;;;3.70;;
29848;SDS011;16728;50.832;5.590;2023-12-20T17:14:27;12.52;;;3.60;;
29848;SDS011;16728;50.832;5.590;2023-12-20T17:17:30;12.20;;;4.22;;
29848;SDS011;16728;50.832;5.590;2023-12-20T17:20:32;18.33;;;4.63;;
29848;SDS011;16728;50.832;5.590;2023-12-20T17:23:34;15.02;;;4.97;;
29848;SDS011;16728;50.832;5.590;2023-12-20T17:26:51;12.88;;;4.43;;
29848;SDS011;16728;50.832;5.590;2023-12-20T17:29:52;15.02;;;4.50;;
29848;SDS011;16728;50.832;5.590;2023-12-20T17:32:54;21.30;;;5.05;;
29848;SDS011;16728;50.832;5.590;2023-12-20T17:35:56;15.98;;;4.32;;
29848;SDS011;16728;50.832;5.590;2023-12-20T17:38:58;15.48;;;4.57;;
29848;SDS011;16728;50.832;5.590;2023-12-20T17:42:00;13.88;;;4.15;;
29848;SDS011;16728;50.832;5.590;2023-12-20T17:45:03;19.20;;;5.07;;
29848;SDS011;16728;50.832;5.590;2023-12-20T17:48:05;10.07;;;4.30;;
29848;SDS011;16728;50.832;5.590;2023-12-20T17:51:08;12.27;;;5.00;;
29848;SDS011;16728;50.832;5.590;2023-12-20T17:54:10;19.00;;;4.90;;
29848;SDS011;16728;50.832;5.590;2023-12-20T17:57:11;15.55;;;5.32;;
29848;SDS011;16728;50.832;5.590;2023-12-20T18:00:14;21.65;;;5.75;;
29848;SDS011;16728;50.832;5.590;2023-12-20T18:03:18;17.48;;;8.25;;
29848;SDS011;16728;50.832;5.590;2023-12-20T18:06:20;16.95;;;5.93;;
29848;SDS011;16728;50.832;5.590;2023-12-20T18:09:22;16.52;;;5.97;;
29848;SDS011;16728;50.832;5.590;2023-12-20T18:12:24;11.65;;;5.32;;
29848;SDS011;16728;50.832;5.590;2023-12-20T18:15:26;14.13;;;4.53;;
29848;SDS011;16728;50.832;5.590;2023-12-20T18:18:31;19.13;;;4.85;;
29848;SDS011;16728;50.832;5.590;2023-12-20T18:21:33;19.05;;;5.22;;
29848;SDS011;16728;50.832;5.590;2023-12-20T18:24:35;10.65;;;5.00;;